Terminal Aerodrome Forecast
Issued by NWS Central Illinois

Home | Current Version | Previous Version | Text Only | Print | Product List | Glossary On
Versions: 1 2 3 4 5 6 7 8 9 10 11 12 13 14 15
000
FTUS43 KILX 010500 RRA
TAFSPI
TAF
KSPI 010549Z 0106/0206 12008KT P6SM OVC035
     FM010900 12010KT 2SM -SN BR OVC015
     FM011200 12012KT 1SM -SN BR OVC008
     FM011800 08005KT 4SM -SN BR OVC008
     FM012000 35010KT P6SM OVC008
     FM020200 35012G22KT P6SM OVC008=

USA.gov is the U.S. government's official web portal to all federal, state and local government web resources and services.